sensor_id;sensor_type;location;lat;lon;timestamp;P1;durP1;ratioP1;P2;durP2;ratioP2
69894;SDS011;57172;52.034;5.090;2023-05-14T00:00:49;20.63;;;11.65;;
69894;SDS011;57172;52.034;5.090;2023-05-14T00:03:16;21.35;;;11.68;;
69894;SDS011;57172;52.034;5.090;2023-05-14T00:05:43;18.33;;;11.53;;
69894;SDS011;57172;52.034;5.090;2023-05-14T00:08:10;17.30;;;11.13;;
69894;SDS011;57172;52.034;5.090;2023-05-14T00:10:36;22.25;;;12.02;;
69894;SDS011;57172;52.034;5.090;2023-05-14T00:13:03;19.58;;;11.68;;
69894;SDS011;57172;52.034;5.090;2023-05-14T00:15:30;17.90;;;11.23;;
69894;SDS011;57172;52.034;5.090;2023-05-14T00:17:59;17.43;;;10.97;;
69894;SDS011;57172;52.034;5.090;2023-05-14T00:20:26;20.40;;;11.38;;
69894;SDS011;57172;52.034;5.090;2023-05-14T00:22:53;21.40;;;10.90;;
69894;SDS011;57172;52.034;5.090;2023-05-14T00:25:20;17.48;;;11.43;;
69894;SDS011;57172;52.034;5.090;2023-05-14T00:27:47;20.20;;;11.35;;
69894;SDS011;57172;52.034;5.090;2023-05-14T00:30:14;21.77;;;10.83;;
69894;SDS011;57172;52.034;5.090;2023-05-14T00:32:41;18.52;;;11.80;;
69894;SDS011;57172;52.034;5.090;2023-05-14T00:35:08;19.02;;;11.85;;
69894;SDS011;57172;52.034;5.090;2023-05-14T00:37:35;21.25;;;11.60;;
69894;SDS011;57172;52.034;5.090;2023-05-14T00:40:02;23.58;;;11.90;;
69894;SDS011;57172;52.034;5.090;2023-05-14T00:42:32;19.03;;;11.37;;
69894;SDS011;57172;52.034;5.090;2023-05-14T00:44:59;19.15;;;11.32;;
69894;SDS011;57172;52.034;5.090;2023-05-14T00:47:26;23.48;;;11.45;;
69894;SDS011;57172;52.034;5.090;2023-05-14T00:49:53;19.35;;;11.10;;
69894;SDS011;57172;52.034;5.090;2023-05-14T00:52:20;18.65;;;11.18;;
69894;SDS011;57172;52.034;5.090;2023-05-14T00:54:47;18.37;;;10.70;;
69894;SDS011;57172;52.034;5.090;2023-05-14T00:57:18;19.13;;;11.43;;
69894;SDS011;57172;52.034;5.090;2023-05-14T00:59:46;17.40;;;10.90;;
69894;SDS011;57172;52.034;5.090;2023-05-14T01:02:14;21.90;;;10.93;;
69894;SDS011;57172;52.034;5.090;2023-05-14T01:04:41;19.17;;;10.70;;
69894;SDS011;57172;52.034;5.090;2023-05-14T01:13:17;19.00;;;10.65;;
69894;SDS011;57172;52.034;5.090;2023-05-14T01:15:43;19.40;;;10.43;;
69894;SDS011;57172;52.034;5.090;2023-05-14T01:18:13;19.73;;;11.32;;
69894;SDS011;57172;52.034;5.090;2023-05-14T01:20:44;21.67;;;11.43;;
69894;SDS011;57172;52.034;5.090;2023-05-14T01:23:11;20.85;;;11.07;;
69894;SDS011;57172;52.034;5.090;2023-05-14T01:25:38;19.65;;;11.73;;
69894;SDS011;57172;52.034;5.090;2023-05-14T01:28:08;20.75;;;11.35;;
69894;SDS011;57172;52.034;5.090;2023-05-14T01:30:52;20.15;;;11.75;;
69894;SDS011;57172;52.034;5.090;2023-05-14T01:33:19;20.57;;;11.33;;
69894;SDS011;57172;52.034;5.090;2023-05-14T01:35:51;21.65;;;11.57;;
69894;SDS011;57172;52.034;5.090;2023-05-14T01:38:19;19.25;;;11.30;;
69894;SDS011;57172;52.034;5.090;2023-05-14T01:40:47;20.77;;;11.60;;
69894;SDS011;57172;52.034;5.090;2023-05-14T01:43:15;22.67;;;11.68;;
69894;SDS011;57172;52.034;5.090;2023-05-14T01:45:42;18.07;;;11.30;;
69894;SDS011;57172;52.034;5.090;2023-05-14T01:48:09;19.67;;;11.25;;
69894;SDS011;57172;52.034;5.090;2023-05-14T01:50:37;17.50;;;11.70;;
69894;SDS011;57172;52.034;5.090;2023-05-14T01:53:04;20.63;;;11.57;;
69894;SDS011;57172;52.034;5.090;2023-05-14T01:55:31;20.17;;;11.48;;
69894;SDS011;57172;52.034;5.090;2023-05-14T01:57:57;19.50;;;11.73;;
69894;SDS011;57172;52.034;5.090;2023-05-14T02:00:25;21.60;;;11.95;;
69894;SDS011;57172;52.034;5.090;2023-05-14T02:02:52;23.05;;;11.68;;
69894;SDS011;57172;52.034;5.090;2023-05-14T02:05:19;21.98;;;11.80;;
69894;SDS011;57172;52.034;5.090;2023-05-14T02:07:46;21.38;;;12.10;;
69894;SDS011;57172;52.034;5.090;2023-05-14T02:10:14;22.13;;;11.53;;
69894;SDS011;57172;52.034;5.090;2023-05-14T02:12:41;22.30;;;11.40;;
69894;SDS011;57172;52.034;5.090;2023-05-14T02:15:08;20.88;;;11.48;;
69894;SDS011;57172;52.034;5.090;2023-05-14T02:17:36;21.67;;;11.15;;
69894;SDS011;57172;52.034;5.090;2023-05-14T02:20:03;23.23;;;11.98;;
69894;SDS011;57172;52.034;5.090;2023-05-14T02:22:31;23.17;;;11.73;;
69894;SDS011;57172;52.034;5.090;2023-05-14T02:24:58;19.98;;;11.88;;
69894;SDS011;57172;52.034;5.090;2023-05-14T02:27:25;19.25;;;11.07;;
69894;SDS011;57172;52.034;5.090;2023-05-14T02:29:52;29.10;;;11.52;;
69894;SDS011;57172;52.034;5.090;2023-05-14T02:32:18;21.70;;;11.50;;
69894;SDS011;57172;52.034;5.090;2023-05-14T02:34:45;21.43;;;11.63;;
69894;SDS011;57172;52.034;5.090;2023-05-14T02:37:12;24.20;;;11.80;;
69894;SDS011;57172;52.034;5.090;2023-05-14T02:39:39;20.77;;;11.45;;
69894;SDS011;57172;52.034;5.090;2023-05-14T02:42:06;23.05;;;11.38;;
69894;SDS011;57172;52.034;5.090;2023-05-14T02:44:33;21.60;;;11.07;;
69894;SDS011;57172;52.034;5.090;2023-05-14T02:47:00;17.97;;;11.03;;
69894;SDS011;57172;52.034;5.090;2023-05-14T02:49:27;21.63;;;11.43;;
69894;SDS011;57172;52.034;5.090;2023-05-14T02:51:55;23.60;;;11.82;;
69894;SDS011;57172;52.034;5.090;2023-05-14T02:54:22;19.38;;;11.35;;
69894;SDS011;57172;52.034;5.090;2023-05-14T02:56:48;21.52;;;11.32;;
69894;SDS011;57172;52.034;5.090;2023-05-14T02:59:16;25.50;;;11.17;;
69894;SDS011;57172;52.034;5.090;2023-05-14T03:01:43;22.13;;;11.57;;
69894;SDS011;57172;52.034;5.090;2023-05-14T03:04:10;22.10;;;11.40;;
69894;SDS011;57172;52.034;5.090;2023-05-14T03:06:37;19.40;;;11.27;;
69894;SDS011;57172;52.034;5.090;2023-05-14T03:09:04;22.05;;;11.38;;
69894;SDS011;57172;52.034;5.090;2023-05-14T03:11:31;20.70;;;11.57;;
69894;SDS011;57172;52.034;5.090;2023-05-14T03:13:58;21.63;;;11.95;;
69894;SDS011;57172;52.034;5.090;2023-05-14T03:16:25;20.45;;;11.20;;
69894;SDS011;57172;52.034;5.090;2023-05-14T03:18:52;21.60;;;12.18;;
69894;SDS011;57172;52.034;5.090;2023-05-14T03:21:19;18.80;;;11.07;;
69894;SDS011;57172;52.034;5.090;2023-05-14T03:23:47;20.87;;;11.37;;
69894;SDS011;57172;52.034;5.090;2023-05-14T03:26:17;21.20;;;11.50;;
69894;SDS011;57172;52.034;5.090;2023-05-14T03:28:43;20.13;;;11.27;;
69894;SDS011;57172;52.034;5.090;2023-05-14T03:31:11;22.50;;;11.43;;
69894;SDS011;57172;52.034;5.090;2023-05-14T03:33:38;23.17;;;11.70;;
69894;SDS011;57172;52.034;5.090;2023-05-14T03:36:05;25.57;;;11.63;;
69894;SDS011;57172;52.034;5.090;2023-05-14T03:38:32;22.10;;;12.30;;
69894;SDS011;57172;52.034;5.090;2023-05-14T03:40:59;24.30;;;12.15;;
69894;SDS011;57172;52.034;5.090;2023-05-14T03:43:25;26.27;;;12.00;;
69894;SDS011;57172;52.034;5.090;2023-05-14T03:45:53;21.73;;;11.80;;
69894;SDS011;57172;52.034;5.090;2023-05-14T03:48:21;22.13;;;11.93;;
69894;SDS011;57172;52.034;5.090;2023-05-14T03:50:48;26.08;;;12.57;;
69894;SDS011;57172;52.034;5.090;2023-05-14T03:53:15;24.50;;;12.23;;
69894;SDS011;57172;52.034;5.090;2023-05-14T03:55:44;20.77;;;12.35;;
69894;SDS011;57172;52.034;5.090;2023-05-14T03:58:11;19.83;;;11.68;;
69894;SDS011;57172;52.034;5.090;2023-05-14T04:00:40;22.00;;;11.63;;
69894;SDS011;57172;52.034;5.090;2023-05-14T04:03:08;25.58;;;12.25;;
69894;SDS011;57172;52.034;5.090;2023-05-14T04:05:36;24.10;;;11.32;;
69894;SDS011;57172;52.034;5.090;2023-05-14T04:08:03;23.60;;;11.57;;
69894;SDS011;57172;52.034;5.090;2023-05-14T04:10:31;26.38;;;12.00;;
69894;SDS011;57172;52.034;5.090;2023-05-14T04:12:59;19.60;;;10.90;;
69894;SDS011;57172;52.034;5.090;2023-05-14T04:15:30;25.33;;;11.90;;
69894;SDS011;57172;52.034;5.090;2023-05-14T04:17:57;21.33;;;11.80;;
69894;SDS011;57172;52.034;5.090;2023-05-14T04:20:24;21.75;;;11.98;;
69894;SDS011;57172;52.034;5.090;2023-05-14T04:22:51;21.77;;;11.63;;
69894;SDS011;57172;52.034;5.090;2023-05-14T04:25:18;21.30;;;11.43;;
69894;SDS011;57172;52.034;5.090;2023-05-14T04:27:46;23.83;;;11.63;;
69894;SDS011;57172;52.034;5.090;2023-05-14T04:30:12;22.30;;;11.40;;
69894;SDS011;57172;52.034;5.090;2023-05-14T04:32:39;21.88;;;11.55;;
69894;SDS011;57172;52.034;5.090;2023-05-14T04:35:06;21.25;;;11.25;;
69894;SDS011;57172;52.034;5.090;2023-05-14T04:37:35;19.47;;;11.43;;
69894;SDS011;57172;52.034;5.090;2023-05-14T04:40:02;21.92;;;11.70;;
69894;SDS011;57172;52.034;5.090;2023-05-14T04:42:31;24.40;;;11.23;;
69894;SDS011;57172;52.034;5.090;2023-05-14T04:44:57;20.92;;;10.90;;
69894;SDS011;57172;52.034;5.090;2023-05-14T04:47:24;22.48;;;10.70;;
69894;SDS011;57172;52.034;5.090;2023-05-14T04:49:51;19.10;;;11.00;;
69894;SDS011;57172;52.034;5.090;2023-05-14T04:52:18;18.42;;;10.43;;
69894;SDS011;57172;52.034;5.090;2023-05-14T04:54:45;17.77;;;11.07;;
69894;SDS011;57172;52.034;5.090;2023-05-14T04:57:12;20.63;;;11.15;;
69894;SDS011;57172;52.034;5.090;2023-05-14T04:59:39;19.13;;;10.57;;
69894;SDS011;57172;52.034;5.090;2023-05-14T05:02:06;19.53;;;10.77;;
69894;SDS011;57172;52.034;5.090;2023-05-14T05:04:33;20.52;;;10.75;;
69894;SDS011;57172;52.034;5.090;2023-05-14T05:07:00;20.13;;;11.13;;
69894;SDS011;57172;52.034;5.090;2023-05-14T05:09:26;23.17;;;11.00;;
69894;SDS011;57172;52.034;5.090;2023-05-14T05:11:53;20.33;;;10.98;;
69894;SDS011;57172;52.034;5.090;2023-05-14T05:14:20;18.63;;;10.90;;
69894;SDS011;57172;52.034;5.090;2023-05-14T05:16:47;22.40;;;11.30;;
69894;SDS011;57172;52.034;5.090;2023-05-14T05:19:14;20.40;;;10.48;;
69894;SDS011;57172;52.034;5.090;2023-05-14T05:21:41;26.42;;;11.82;;
69894;SDS011;57172;52.034;5.090;2023-05-14T05:24:08;18.67;;;10.18;;
69894;SDS011;57172;52.034;5.090;2023-05-14T05:26:35;19.50;;;10.70;;
69894;SDS011;57172;52.034;5.090;2023-05-14T05:29:02;21.05;;;11.18;;
69894;SDS011;57172;52.034;5.090;2023-05-14T05:31:29;20.83;;;11.10;;
69894;SDS011;57172;52.034;5.090;2023-05-14T05:33:57;19.42;;;10.73;;
69894;SDS011;57172;52.034;5.090;2023-05-14T05:36:26;18.02;;;10.65;;
69894;SDS011;57172;52.034;5.090;2023-05-14T05:38:52;18.40;;;10.97;;
69894;SDS011;57172;52.034;5.090;2023-05-14T05:41:20;22.92;;;10.85;;
69894;SDS011;57172;52.034;5.090;2023-05-14T05:43:47;17.75;;;9.98;;
69894;SDS011;57172;52.034;5.090;2023-05-14T05:46:14;18.00;;;10.25;;
69894;SDS011;57172;52.034;5.090;2023-05-14T05:48:41;19.50;;;10.77;;
69894;SDS011;57172;52.034;5.090;2023-05-14T05:51:08;19.67;;;10.63;;
69894;SDS011;57172;52.034;5.090;2023-05-14T05:53:35;21.75;;;10.50;;
69894;SDS011;57172;52.034;5.090;2023-05-14T05:56:02;18.88;;;10.48;;
69894;SDS011;57172;52.034;5.090;2023-05-14T05:58:29;16.98;;;10.50;;
69894;SDS011;57172;52.034;5.090;2023-05-14T06:00:56;19.05;;;10.43;;
69894;SDS011;57172;52.034;5.090;2023-05-14T06:03:23;20.03;;;9.77;;
69894;SDS011;57172;52.034;5.090;2023-05-14T06:05:50;18.88;;;10.70;;
69894;SDS011;57172;52.034;5.090;2023-05-14T06:08:18;17.83;;;10.85;;
69894;SDS011;57172;52.034;5.090;2023-05-14T06:10:44;18.17;;;10.13;;
69894;SDS011;57172;52.034;5.090;2023-05-14T06:13:13;19.50;;;10.45;;
69894;SDS011;57172;52.034;5.090;2023-05-14T06:15:39;17.43;;;9.73;;
69894;SDS011;57172;52.034;5.090;2023-05-14T06:18:06;15.52;;;9.50;;
69894;SDS011;57172;52.034;5.090;2023-05-14T06:20:33;20.02;;;10.13;;
69894;SDS011;57172;52.034;5.090;2023-05-14T06:23:00;17.95;;;9.77;;
69894;SDS011;57172;52.034;5.090;2023-05-14T06:25:27;16.73;;;10.40;;
69894;SDS011;57172;52.034;5.090;2023-05-14T06:27:54;15.00;;;9.73;;
69894;SDS011;57172;52.034;5.090;2023-05-14T06:30:21;15.50;;;9.55;;
69894;SDS011;57172;52.034;5.090;2023-05-14T06:32:48;18.80;;;9.90;;
69894;SDS011;57172;52.034;5.090;2023-05-14T06:35:16;15.77;;;10.40;;
69894;SDS011;57172;52.034;5.090;2023-05-14T06:37:44;19.52;;;9.57;;
69894;SDS011;57172;52.034;5.090;2023-05-14T06:40:11;16.33;;;9.87;;
69894;SDS011;57172;52.034;5.090;2023-05-14T06:42:40;16.73;;;10.15;;
69894;SDS011;57172;52.034;5.090;2023-05-14T06:45:07;21.30;;;10.82;;
69894;SDS011;57172;52.034;5.090;2023-05-14T06:47:34;17.73;;;10.05;;
69894;SDS011;57172;52.034;5.090;2023-05-14T06:50:02;16.65;;;9.75;;
69894;SDS011;57172;52.034;5.090;2023-05-14T06:52:29;19.23;;;10.47;;
69894;SDS011;57172;52.034;5.090;2023-05-14T06:54:56;16.70;;;10.30;;
69894;SDS011;57172;52.034;5.090;2023-05-14T06:57:23;16.75;;;10.57;;
69894;SDS011;57172;52.034;5.090;2023-05-14T06:59:50;16.63;;;10.52;;
69894;SDS011;57172;52.034;5.090;2023-05-14T07:02:17;16.15;;;10.85;;
69894;SDS011;57172;52.034;5.090;2023-05-14T07:04:44;15.20;;;9.87;;
69894;SDS011;57172;52.034;5.090;2023-05-14T07:07:11;17.75;;;10.30;;
69894;SDS011;57172;52.034;5.090;2023-05-14T07:09:40;15.98;;;10.30;;
69894;SDS011;57172;52.034;5.090;2023-05-14T07:12:08;15.13;;;9.98;;
69894;SDS011;57172;52.034;5.090;2023-05-14T07:14:35;16.23;;;9.73;;
69894;SDS011;57172;52.034;5.090;2023-05-14T07:17:01;18.60;;;10.33;;
69894;SDS011;57172;52.034;5.090;2023-05-14T07:19:28;14.00;;;9.68;;
69894;SDS011;57172;52.034;5.090;2023-05-14T07:21:55;17.83;;;10.15;;
69894;SDS011;57172;52.034;5.090;2023-05-14T07:24:23;19.33;;;10.45;;
69894;SDS011;57172;52.034;5.090;2023-05-14T07:26:49;16.67;;;10.15;;
69894;SDS011;57172;52.034;5.090;2023-05-14T07:29:16;16.47;;;10.20;;
69894;SDS011;57172;52.034;5.090;2023-05-14T07:31:43;16.60;;;9.93;;
69894;SDS011;57172;52.034;5.090;2023-05-14T07:34:10;17.88;;;10.02;;
69894;SDS011;57172;52.034;5.090;2023-05-14T07:36:38;21.17;;;10.52;;
69894;SDS011;57172;52.034;5.090;2023-05-14T07:39:05;14.43;;;9.38;;
69894;SDS011;57172;52.034;5.090;2023-05-14T07:41:31;16.83;;;9.70;;
69894;SDS011;57172;52.034;5.090;2023-05-14T07:43:58;15.57;;;9.82;;
69894;SDS011;57172;52.034;5.090;2023-05-14T07:46:25;14.73;;;9.32;;
69894;SDS011;57172;52.034;5.090;2023-05-14T07:48:52;16.88;;;9.70;;
69894;SDS011;57172;52.034;5.090;2023-05-14T07:51:19;13.93;;;8.57;;
69894;SDS011;57172;52.034;5.090;2023-05-14T07:53:46;12.63;;;8.80;;
69894;SDS011;57172;52.034;5.090;2023-05-14T07:56:13;13.05;;;9.02;;
69894;SDS011;57172;52.034;5.090;2023-05-14T07:58:39;15.07;;;8.65;;
69894;SDS011;57172;52.034;5.090;2023-05-14T08:01:06;13.90;;;8.45;;
69894;SDS011;57172;52.034;5.090;2023-05-14T08:03:34;15.40;;;8.00;;
69894;SDS011;57172;52.034;5.090;2023-05-14T08:06:01;12.53;;;8.10;;
69894;SDS011;57172;52.034;5.090;2023-05-14T08:08:29;16.98;;;8.10;;
69894;SDS011;57172;52.034;5.090;2023-05-14T08:10:56;13.65;;;8.00;;
69894;SDS011;57172;52.034;5.090;2023-05-14T08:13:23;13.52;;;8.13;;
69894;SDS011;57172;52.034;5.090;2023-05-14T08:15:49;13.20;;;7.90;;
69894;SDS011;57172;52.034;5.090;2023-05-14T08:18:16;16.00;;;8.50;;
69894;SDS011;57172;52.034;5.090;2023-05-14T08:20:43;15.13;;;8.10;;
69894;SDS011;57172;52.034;5.090;2023-05-14T08:23:10;11.50;;;7.50;;
69894;SDS011;57172;52.034;5.090;2023-05-14T08:25:37;10.68;;;6.95;;
69894;SDS011;57172;52.034;5.090;2023-05-14T08:28:04;10.77;;;7.13;;
69894;SDS011;57172;52.034;5.090;2023-05-14T08:30:31;11.97;;;6.50;;
69894;SDS011;57172;52.034;5.090;2023-05-14T08:32:58;13.13;;;6.50;;
69894;SDS011;57172;52.034;5.090;2023-05-14T08:35:25;11.30;;;5.82;;
69894;SDS011;57172;52.034;5.090;2023-05-14T08:37:51;13.05;;;5.78;;
69894;SDS011;57172;52.034;5.090;2023-05-14T08:40:18;9.15;;;5.20;;
69894;SDS011;57172;52.034;5.090;2023-05-14T08:42:45;10.13;;;5.30;;
69894;SDS011;57172;52.034;5.090;2023-05-14T08:45:20;8.88;;;4.85;;
69894;SDS011;57172;52.034;5.090;2023-05-14T08:47:50;9.38;;;5.47;;
69894;SDS011;57172;52.034;5.090;2023-05-14T08:50:18;10.57;;;5.20;;
69894;SDS011;57172;52.034;5.090;2023-05-14T08:52:48;16.75;;;5.60;;
69894;SDS011;57172;52.034;5.090;2023-05-14T08:55:15;12.03;;;5.80;;
69894;SDS011;57172;52.034;5.090;2023-05-14T08:57:43;14.80;;;5.55;;
69894;SDS011;57172;52.034;5.090;2023-05-14T09:00:10;8.98;;;5.45;;
69894;SDS011;57172;52.034;5.090;2023-05-14T09:02:38;13.38;;;5.60;;
69894;SDS011;57172;52.034;5.090;2023-05-14T09:05:06;12.38;;;5.60;;
69894;SDS011;57172;52.034;5.090;2023-05-14T09:07:34;11.47;;;5.00;;
69894;SDS011;57172;52.034;5.090;2023-05-14T09:10:01;9.20;;;5.40;;
69894;SDS011;57172;52.034;5.090;2023-05-14T09:12:29;9.90;;;5.22;;
69894;SDS011;57172;52.034;5.090;2023-05-14T09:14:56;11.27;;;5.30;;
69894;SDS011;57172;52.034;5.090;2023-05-14T09:17:24;10.27;;;5.15;;
69894;SDS011;57172;52.034;5.090;2023-05-14T09:19:53;8.60;;;5.00;;
69894;SDS011;57172;52.034;5.090;2023-05-14T09:22:20;14.38;;;5.20;;
69894;SDS011;57172;52.034;5.090;2023-05-14T09:25:00;8.73;;;5.03;;
69894;SDS011;57172;52.034;5.090;2023-05-14T09:27:29;12.90;;;5.22;;
69894;SDS011;57172;52.034;5.090;2023-05-14T09:30:04;12.70;;;5.03;;
69894;SDS011;57172;52.034;5.090;2023-05-14T09:32:35;9.67;;;5.30;;
69894;SDS011;57172;52.034;5.090;2023-05-14T09:35:16;8.52;;;4.72;;
69894;SDS011;57172;52.034;5.090;2023-05-14T09:37:45;13.40;;;5.40;;
69894;SDS011;57172;52.034;5.090;2023-05-14T09:40:14;8.73;;;4.95;;
69894;SDS011;57172;52.034;5.090;2023-05-14T09:42:42;11.43;;;4.82;;
69894;SDS011;57172;52.034;5.090;2023-05-14T09:45:09;10.37;;;4.83;;
69894;SDS011;57172;52.034;5.090;2023-05-14T09:47:37;10.45;;;4.80;;
69894;SDS011;57172;52.034;5.090;2023-05-14T09:50:05;9.60;;;4.72;;
69894;SDS011;57172;52.034;5.090;2023-05-14T09:52:32;10.98;;;4.75;;
69894;SDS011;57172;52.034;5.090;2023-05-14T09:55:00;8.40;;;4.65;;
69894;SDS011;57172;52.034;5.090;2023-05-14T09:57:27;10.20;;;4.97;;
69894;SDS011;57172;52.034;5.090;2023-05-14T09:59:54;11.95;;;5.13;;
69894;SDS011;57172;52.034;5.090;2023-05-14T10:02:25;7.95;;;4.85;;
69894;SDS011;57172;52.034;5.090;2023-05-14T10:04:56;7.90;;;4.75;;
69894;SDS011;57172;52.034;5.090;2023-05-14T10:07:32;10.93;;;4.75;;
69894;SDS011;57172;52.034;5.090;2023-05-14T10:10:15;11.13;;;5.20;;
69894;SDS011;57172;52.034;5.090;2023-05-14T10:12:47;11.90;;;5.07;;
69894;SDS011;57172;52.034;5.090;2023-05-14T10:15:19;10.38;;;4.78;;
69894;SDS011;57172;52.034;5.090;2023-05-14T10:17:59;9.75;;;4.60;;
69894;SDS011;57172;52.034;5.090;2023-05-14T10:20:29;13.60;;;4.70;;
69894;SDS011;57172;52.034;5.090;2023-05-14T10:22:57;12.10;;;4.50;;
69894;SDS011;57172;52.034;5.090;2023-05-14T10:25:24;9.75;;;4.72;;
69894;SDS011;57172;52.034;5.090;2023-05-14T10:27:51;11.82;;;4.70;;
69894;SDS011;57172;52.034;5.090;2023-05-14T10:30:20;9.15;;;4.80;;
69894;SDS011;57172;52.034;5.090;2023-05-14T10:33:06;10.05;;;4.43;;
69894;SDS011;57172;52.034;5.090;2023-05-14T10:38:27;9.38;;;4.20;;
69894;SDS011;57172;52.034;5.090;2023-05-14T10:40:58;9.80;;;4.50;;
69894;SDS011;57172;52.034;5.090;2023-05-14T10:43:43;10.48;;;4.65;;
69894;SDS011;57172;52.034;5.090;2023-05-14T10:46:10;12.73;;;4.40;;
69894;SDS011;57172;52.034;5.090;2023-05-14T10:48:42;9.57;;;3.80;;
69894;SDS011;57172;52.034;5.090;2023-05-14T10:51:09;11.48;;;4.38;;
69894;SDS011;57172;52.034;5.090;2023-05-14T10:53:38;8.98;;;4.60;;
69894;SDS011;57172;52.034;5.090;2023-05-14T10:56:07;11.15;;;4.45;;
69894;SDS011;57172;52.034;5.090;2023-05-14T10:58:39;9.65;;;4.60;;
69894;SDS011;57172;52.034;5.090;2023-05-14T11:01:11;8.93;;;4.77;;
69894;SDS011;57172;52.034;5.090;2023-05-14T11:03:39;8.88;;;4.47;;
69894;SDS011;57172;52.034;5.090;2023-05-14T11:06:12;9.32;;;4.10;;
69894;SDS011;57172;52.034;5.090;2023-05-14T11:08:40;9.07;;;4.18;;
69894;SDS011;57172;52.034;5.090;2023-05-14T11:11:08;7.25;;;3.97;;
69894;SDS011;57172;52.034;5.090;2023-05-14T11:13:36;9.60;;;4.60;;
69894;SDS011;57172;52.034;5.090;2023-05-14T11:16:03;9.32;;;4.50;;
69894;SDS011;57172;52.034;5.090;2023-05-14T11:18:47;9.45;;;4.30;;
69894;SDS011;57172;52.034;5.090;2023-05-14T11:21:25;10.63;;;4.43;;
69894;SDS011;57172;52.034;5.090;2023-05-14T11:23:53;9.70;;;4.30;;
69894;SDS011;57172;52.034;5.090;2023-05-14T11:26:22;10.63;;;4.50;;
69894;SDS011;57172;52.034;5.090;2023-05-14T11:28:49;8.50;;;4.63;;
69894;SDS011;57172;52.034;5.090;2023-05-14T11:31:16;10.57;;;4.20;;
69894;SDS011;57172;52.034;5.090;2023-05-14T11:33:44;9.73;;;4.20;;
69894;SDS011;57172;52.034;5.090;2023-05-14T11:36:11;10.15;;;4.70;;
69894;SDS011;57172;52.034;5.090;2023-05-14T11:38:45;11.00;;;4.53;;
69894;SDS011;57172;52.034;5.090;2023-05-14T11:41:14;9.00;;;4.60;;
69894;SDS011;57172;52.034;5.090;2023-05-14T11:43:41;8.85;;;4.47;;
69894;SDS011;57172;52.034;5.090;2023-05-14T11:46:14;9.45;;;4.75;;
69894;SDS011;57172;52.034;5.090;2023-05-14T11:48:43;8.73;;;4.47;;
69894;SDS011;57172;52.034;5.090;2023-05-14T11:51:10;9.40;;;4.60;;
69894;SDS011;57172;52.034;5.090;2023-05-14T11:53:37;10.10;;;4.43;;
69894;SDS011;57172;52.034;5.090;2023-05-14T11:56:04;9.70;;;4.85;;
69894;SDS011;57172;52.034;5.090;2023-05-14T11:58:35;12.95;;;4.40;;
69894;SDS011;57172;52.034;5.090;2023-05-14T12:01:02;10.43;;;4.55;;
69894;SDS011;57172;52.034;5.090;2023-05-14T12:03:29;11.70;;;5.30;;
69894;SDS011;57172;52.034;5.090;2023-05-14T12:05:57;10.93;;;4.93;;
69894;SDS011;57172;52.034;5.090;2023-05-14T12:08:25;8.32;;;4.40;;
69894;SDS011;57172;52.034;5.090;2023-05-14T12:10:57;10.93;;;4.55;;
69894;SDS011;57172;52.034;5.090;2023-05-14T12:13:25;6.80;;;4.00;;
69894;SDS011;57172;52.034;5.090;2023-05-14T12:15:53;6.63;;;3.97;;
69894;SDS011;57172;52.034;5.090;2023-05-14T12:18:25;10.23;;;4.32;;
69894;SDS011;57172;52.034;5.090;2023-05-14T12:20:54;13.35;;;4.70;;
69894;SDS011;57172;52.034;5.090;2023-05-14T12:23:24;10.95;;;4.55;;
69894;SDS011;57172;52.034;5.090;2023-05-14T12:25:52;10.15;;;4.70;;
69894;SDS011;57172;52.034;5.090;2023-05-14T12:28:19;11.97;;;4.60;;
69894;SDS011;57172;52.034;5.090;2023-05-14T12:30:54;8.38;;;4.18;;
69894;SDS011;57172;52.034;5.090;2023-05-14T12:33:22;10.32;;;4.45;;
69894;SDS011;57172;52.034;5.090;2023-05-14T12:35:49;8.60;;;4.30;;
69894;SDS011;57172;52.034;5.090;2023-05-14T12:38:15;9.50;;;5.25;;
69894;SDS011;57172;52.034;5.090;2023-05-14T12:40:42;10.90;;;5.80;;
69894;SDS011;57172;52.034;5.090;2023-05-14T12:43:09;8.07;;;4.10;;
69894;SDS011;57172;52.034;5.090;2023-05-14T12:45:36;8.68;;;4.38;;
69894;SDS011;57172;52.034;5.090;2023-05-14T12:48:03;9.45;;;4.50;;
69894;SDS011;57172;52.034;5.090;2023-05-14T12:50:30;14.98;;;4.45;;
69894;SDS011;57172;52.034;5.090;2023-05-14T12:52:57;10.67;;;4.10;;
69894;SDS011;57172;52.034;5.090;2023-05-14T12:55:24;7.93;;;4.20;;
69894;SDS011;57172;52.034;5.090;2023-05-14T12:57:51;6.78;;;4.10;;
69894;SDS011;57172;52.034;5.090;2023-05-14T13:00:19;8.13;;;4.50;;
69894;SDS011;57172;52.034;5.090;2023-05-14T13:02:46;8.93;;;4.35;;
69894;SDS011;57172;52.034;5.090;2023-05-14T13:05:13;11.07;;;4.40;;
69894;SDS011;57172;52.034;5.090;2023-05-14T13:07:39;7.30;;;3.83;;
69894;SDS011;57172;52.034;5.090;2023-05-14T13:10:06;8.00;;;4.22;;
69894;SDS011;57172;52.034;5.090;2023-05-14T13:12:34;6.72;;;3.90;;
69894;SDS011;57172;52.034;5.090;2023-05-14T13:15:01;9.07;;;4.35;;
69894;SDS011;57172;52.034;5.090;2023-05-14T13:17:27;6.33;;;4.07;;
69894;SDS011;57172;52.034;5.090;2023-05-14T13:19:54;9.45;;;4.18;;
69894;SDS011;57172;52.034;5.090;2023-05-14T13:22:21;9.48;;;4.00;;
69894;SDS011;57172;52.034;5.090;2023-05-14T13:24:48;8.98;;;4.00;;
69894;SDS011;57172;52.034;5.090;2023-05-14T13:27:15;7.75;;;4.55;;
69894;SDS011;57172;52.034;5.090;2023-05-14T13:29:42;8.40;;;3.70;;
69894;SDS011;57172;52.034;5.090;2023-05-14T13:32:08;6.72;;;4.00;;
69894;SDS011;57172;52.034;5.090;2023-05-14T13:34:35;6.90;;;3.80;;
69894;SDS011;57172;52.034;5.090;2023-05-14T13:37:02;9.98;;;4.07;;
69894;SDS011;57172;52.034;5.090;2023-05-14T13:39:29;7.65;;;3.83;;
69894;SDS011;57172;52.034;5.090;2023-05-14T13:41:56;6.00;;;3.80;;
69894;SDS011;57172;52.034;5.090;2023-05-14T13:44:23;7.03;;;3.90;;
69894;SDS011;57172;52.034;5.090;2023-05-14T13:46:50;7.15;;;4.10;;
69894;SDS011;57172;52.034;5.090;2023-05-14T13:49:18;9.77;;;4.40;;
69894;SDS011;57172;52.034;5.090;2023-05-14T13:51:45;8.93;;;4.57;;
69894;SDS011;57172;52.034;5.090;2023-05-14T13:54:12;8.40;;;4.60;;
69894;SDS011;57172;52.034;5.090;2023-05-14T13:56:40;9.15;;;4.78;;
69894;SDS011;57172;52.034;5.090;2023-05-14T13:59:07;10.57;;;5.22;;
69894;SDS011;57172;52.034;5.090;2023-05-14T14:01:34;8.50;;;4.93;;
69894;SDS011;57172;52.034;5.090;2023-05-14T14:04:01;9.05;;;5.00;;
69894;SDS011;57172;52.034;5.090;2023-05-14T14:06:29;11.83;;;5.27;;
69894;SDS011;57172;52.034;5.090;2023-05-14T14:08:57;8.88;;;5.15;;
69894;SDS011;57172;52.034;5.090;2023-05-14T14:11:24;11.38;;;5.40;;
69894;SDS011;57172;52.034;5.090;2023-05-14T14:13:51;10.73;;;5.78;;
69894;SDS011;57172;52.034;5.090;2023-05-14T14:16:18;11.25;;;5.90;;
69894;SDS011;57172;52.034;5.090;2023-05-14T14:18:45;14.87;;;5.10;;
69894;SDS011;57172;52.034;5.090;2023-05-14T14:21:12;7.90;;;5.20;;
69894;SDS011;57172;52.034;5.090;2023-05-14T14:23:44;10.13;;;5.80;;
69894;SDS011;57172;52.034;5.090;2023-05-14T14:26:12;10.23;;;5.35;;
69894;SDS011;57172;52.034;5.090;2023-05-14T14:28:39;11.77;;;5.45;;
69894;SDS011;57172;52.034;5.090;2023-05-14T14:31:06;9.57;;;5.30;;
69894;SDS011;57172;52.034;5.090;2023-05-14T14:33:33;12.10;;;5.47;;
69894;SDS011;57172;52.034;5.090;2023-05-14T14:36:00;9.38;;;5.40;;
69894;SDS011;57172;52.034;5.090;2023-05-14T14:38:26;9.95;;;5.93;;
69894;SDS011;57172;52.034;5.090;2023-05-14T14:40:53;10.65;;;5.32;;
69894;SDS011;57172;52.034;5.090;2023-05-14T14:43:20;8.97;;;5.10;;